createdAt,value
2018-07-22T00:00:23.648Z,25.30
2018-07-22T00:03:04.359Z,25.30
2018-07-22T00:05:45.984Z,25.30
2018-07-22T00:08:33.853Z,25.30
2018-07-22T00:11:15.594Z,25.30
2018-07-22T00:13:58.085Z,25.20
2018-07-22T00:16:39.360Z,25.20
2018-07-22T00:22:02.501Z,25.10
2018-07-22T00:24:44.073Z,25.10
2018-07-22T00:27:24.743Z,25.10
2018-07-22T00:30:07.811Z,25.10
2018-07-22T00:32:49.089Z,25.10
2018-07-22T00:35:29.857Z,25.10
2018-07-22T00:38:11.376Z,25.10
2018-07-22T00:40:52.068Z,25.10
2018-07-22T00:43:32.783Z,25.10
2018-07-22T00:46:14.395Z,25.10
2018-07-22T00:48:55.012Z,25.10
2018-07-22T00:51:35.691Z,25.20
2018-07-22T00:54:17.083Z,25.10
2018-07-22T00:56:58.588Z,25.10
2018-07-22T00:59:40.056Z,25.20
2018-07-22T01:02:20.737Z,25.30
2018-07-22T01:05:21.609Z,25.20
2018-07-22T01:08:03.257Z,25.20
2018-07-22T01:13:57.956Z,25.20
2018-07-22T01:16:39.385Z,25.20
2018-07-22T01:19:20.118Z,25.30
2018-07-22T01:22:01.111Z,25.20
2018-07-22T01:24:42.498Z,25.20
2018-07-22T01:27:24.095Z,25.20
2018-07-22T01:30:04.708Z,25.20
2018-07-22T01:39:11.822Z,25.10
2018-07-22T01:41:53.267Z,25.10
2018-07-22T01:44:34.223Z,25.10
2018-07-22T01:50:23.607Z,25.00
2018-07-22T01:53:05.278Z,25.00
2018-07-22T01:56:04.052Z,25.00
2018-07-22T01:58:45.672Z,24.90
2018-07-22T02:01:26.507Z,24.90
2018-07-22T02:04:07.248Z,24.90
2018-07-22T02:06:48.056Z,24.90
2018-07-22T02:09:29.670Z,24.90
2018-07-22T02:12:11.133Z,24.90
2018-07-22T02:15:12.858Z,24.90
2018-07-22T02:17:54.369Z,25.00
2018-07-22T02:20:36.019Z,25.00
2018-07-22T02:23:16.953Z,25.00
2018-07-22T02:25:58.444Z,25.00
2018-07-22T02:28:40.178Z,25.00
2018-07-22T02:31:20.811Z,25.00
2018-07-22T02:37:09.194Z,25.00
2018-07-22T02:39:50.103Z,25.00
2018-07-22T02:42:31.745Z,25.00
2018-07-22T02:45:14.480Z,25.00
2018-07-22T02:47:56.011Z,25.00
2018-07-22T02:50:37.642Z,25.00
2018-07-22T02:53:19.716Z,24.90
2018-07-22T02:56:00.802Z,24.90
2018-07-22T02:58:41.501Z,24.80
2018-07-22T03:01:23.217Z,24.90
2018-07-22T03:04:03.928Z,24.90
2018-07-22T03:06:45.411Z,24.90
2018-07-22T03:09:27.437Z,24.90
2018-07-22T03:12:08.862Z,24.90
2018-07-22T03:14:50.044Z,24.80
2018-07-22T03:17:30.766Z,24.80
2018-07-22T03:20:11.498Z,24.80
2018-07-22T03:22:53.073Z,24.90
2018-07-22T03:25:34.704Z,24.90
2018-07-22T03:28:15.622Z,24.80
2018-07-22T03:30:57.256Z,24.80
2018-07-22T03:33:38.627Z,24.80
2018-07-22T03:36:20.320Z,24.80
2018-07-22T03:39:01.305Z,24.80
2018-07-22T03:41:42.103Z,24.90
2018-07-22T03:44:23.925Z,24.90
2018-07-22T03:47:05.426Z,24.80
2018-07-22T03:49:47.112Z,24.70
2018-07-22T03:52:27.980Z,24.60
2018-07-22T03:55:09.572Z,24.50
2018-07-22T03:57:51.799Z,24.40
2018-07-22T04:00:41.064Z,24.30
2018-07-22T04:03:23.826Z,24.30
2018-07-22T04:06:05.248Z,24.20
2018-07-22T04:09:03.931Z,24.20
2018-07-22T04:11:45.573Z,24.20
2018-07-22T04:14:27.165Z,24.20
2018-07-22T04:17:08.903Z,24.20
2018-07-22T04:19:50.145Z,24.20
2018-07-22T04:22:30.860Z,24.30
2018-07-22T04:25:11.584Z,24.30
2018-07-22T04:27:53.316Z,24.30
2018-07-22T04:30:34.881Z,24.30
2018-07-22T04:33:15.672Z,24.30
2018-07-22T04:35:56.546Z,24.30
2018-07-22T04:38:38.157Z,24.30
2018-07-22T04:41:19.388Z,24.30
2018-07-22T04:44:00.413Z,24.30
2018-07-22T04:46:42.119Z,24.30
2018-07-22T04:49:23.697Z,24.30
2018-07-22T04:52:04.467Z,24.30
2018-07-22T04:54:45.141Z,24.30
2018-07-22T04:57:28.011Z,24.30
2018-07-22T05:00:09.184Z,24.30
2018-07-22T05:02:51.247Z,24.20
2018-07-22T05:05:32.430Z,24.20
2018-07-22T05:08:14.145Z,24.20
2018-07-22T05:10:55.770Z,24.20
2018-07-22T05:13:37.484Z,24.20
2018-07-22T05:16:19.772Z,24.20
2018-07-22T05:19:00.749Z,24.10
2018-07-22T05:21:41.563Z,24.10
2018-07-22T05:24:23.302Z,24.10
2018-07-22T05:27:04.013Z,24.10
2018-07-22T05:29:45.620Z,24.10
2018-07-22T05:32:27.194Z,24.10
2018-07-22T05:35:08.367Z,24.10
2018-07-22T05:37:49.803Z,24.10
2018-07-22T05:40:31.544Z,24.10
2018-07-22T05:43:13.597Z,24.20
2018-07-22T05:45:54.742Z,24.20
2018-07-22T05:48:35.827Z,24.20
2018-07-22T05:51:17.237Z,24.20
2018-07-22T05:53:58.118Z,24.20
2018-07-22T05:56:38.812Z,24.20
2018-07-22T05:59:20.470Z,24.20
2018-07-22T06:02:02.110Z,24.20
2018-07-22T06:04:43.541Z,24.20
2018-07-22T06:07:24.365Z,24.30
2018-07-22T06:10:05.816Z,24.40
2018-07-22T06:12:47.443Z,24.40
2018-07-22T06:15:28.961Z,24.40
2018-07-22T06:18:10.486Z,24.50
2018-07-22T06:20:51.061Z,24.60
2018-07-22T06:23:33.349Z,24.60
2018-07-22T06:26:14.453Z,24.60
2018-07-22T06:28:55.867Z,24.60
2018-07-22T06:31:37.447Z,24.70
2018-07-22T06:34:18.144Z,24.60
2018-07-22T06:36:59.790Z,24.60
2018-07-22T06:39:41.151Z,24.60
2018-07-22T06:42:21.809Z,24.60
2018-07-22T06:45:03.628Z,24.60
2018-07-22T06:47:44.456Z,24.60
2018-07-22T06:50:26.721Z,24.70
2018-07-22T06:53:08.379Z,24.70
2018-07-22T06:55:49.500Z,24.70
2018-07-22T06:58:31.145Z,24.70
2018-07-22T07:01:11.979Z,24.70
2018-07-22T07:03:55.585Z,24.70
2018-07-22T07:06:36.548Z,24.70
2018-07-22T07:09:19.066Z,24.70
2018-07-22T07:11:59.922Z,24.70
2018-07-22T07:14:40.619Z,24.80
2018-07-22T07:17:21.456Z,24.80
2018-07-22T07:20:02.920Z,24.90
2018-07-22T07:22:44.400Z,24.90
2018-07-22T07:25:26.178Z,24.90
2018-07-22T07:28:07.832Z,24.90
2018-07-22T07:30:49.435Z,24.80
2018-07-22T07:33:31.337Z,24.70
2018-07-22T07:36:13.421Z,24.60
2018-07-22T07:38:54.887Z,24.60
2018-07-22T07:41:36.967Z,24.50
2018-07-22T07:47:00.193Z,24.50
2018-07-22T07:49:41.941Z,24.50
2018-07-22T07:52:23.703Z,24.50
2018-07-22T07:55:05.284Z,24.50
2018-07-22T07:57:47.052Z,24.40
2018-07-22T08:00:28.595Z,24.40
2018-07-22T08:03:09.869Z,24.40
2018-07-22T08:05:52.700Z,24.40
2018-07-22T08:08:34.252Z,24.40
2018-07-22T08:11:15.845Z,24.40
2018-07-22T08:13:58.116Z,24.50
2018-07-22T08:16:39.521Z,24.50
2018-07-22T08:19:26.954Z,24.70
2018-07-22T08:22:08.469Z,24.90
2018-07-22T08:24:50.104Z,25.20
2018-07-22T08:27:30.800Z,25.40
2018-07-22T08:30:12.359Z,25.40
2018-07-22T08:32:52.994Z,25.40
2018-07-22T08:35:34.105Z,25.40
2018-07-22T08:38:15.691Z,25.40
2018-07-22T08:40:57.323Z,25.50
2018-07-22T08:43:39.375Z,25.60
2018-07-22T08:46:20.765Z,25.70
2018-07-22T08:49:02.664Z,25.60
2018-07-22T08:51:44.783Z,25.50
2018-07-22T08:54:27.174Z,25.30
2018-07-22T08:57:11.127Z,25.00
2018-07-22T08:59:52.740Z,24.90
2018-07-22T09:02:37.950Z,24.80
2018-07-22T09:05:21.330Z,24.80
2018-07-22T09:08:02.449Z,24.80
2018-07-22T09:10:44.137Z,24.80
2018-07-22T09:13:25.623Z,24.80
2018-07-22T09:16:07.441Z,24.90
2018-07-22T09:18:48.722Z,24.90
2018-07-22T09:21:30.425Z,24.90
2018-07-22T09:24:11.900Z,25.00
2018-07-22T09:26:53.434Z,25.00
2018-07-22T09:29:35.093Z,24.90
2018-07-22T09:32:21.498Z,24.90
2018-07-22T09:35:02.529Z,24.90
2018-07-22T09:37:44.277Z,25.10
2018-07-22T09:40:25.859Z,25.20
2018-07-22T09:43:09.106Z,25.30
2018-07-22T09:45:50.238Z,25.30
2018-07-22T09:48:31.847Z,25.40
2018-07-22T09:51:13.386Z,25.50
2018-07-22T09:53:54.485Z,25.40
2018-07-22T09:59:17.540Z,25.40
2018-07-22T10:01:59.142Z,25.40
2018-07-22T10:04:40.739Z,25.30
2018-07-22T10:07:22.515Z,25.20
2018-07-22T10:10:09.616Z,25.10
2018-07-22T10:12:51.769Z,25.10
2018-07-22T10:15:33.523Z,25.10
2018-07-22T10:18:15.054Z,25.10
2018-07-22T10:21:01.658Z,25.00
2018-07-22T10:23:42.398Z,25.00
2018-07-22T10:26:23.428Z,24.90
2018-07-22T10:29:05.292Z,25.10
2018-07-22T10:31:46.644Z,25.40
2018-07-22T10:34:28.141Z,25.70
2018-07-22T10:37:09.937Z,25.90
2018-07-22T10:39:51.539Z,26.30
2018-07-22T10:42:32.933Z,26.50
2018-07-22T10:45:13.960Z,26.70
2018-07-22T10:47:55.347Z,26.90
2018-07-22T10:50:36.819Z,26.90
2018-07-22T10:53:18.456Z,26.90
2018-07-22T10:55:59.996Z,27.10
2018-07-22T10:58:42.143Z,27.30
2018-07-22T11:01:23.240Z,27.40
2018-07-22T11:04:04.733Z,27.50
2018-07-22T11:06:46.353Z,27.60
2018-07-22T11:09:28.365Z,27.60
2018-07-22T11:12:10.256Z,27.50
2018-07-22T11:14:52.076Z,27.30
2018-07-22T11:17:33.932Z,27.40
2018-07-22T11:20:17.664Z,27.50
2018-07-22T11:23:00.097Z,27.40
2018-07-22T11:25:41.739Z,27.50
2018-07-22T11:28:23.796Z,27.60
2018-07-22T11:31:06.733Z,27.50
2018-07-22T11:33:48.069Z,27.50
2018-07-22T11:36:30.273Z,27.50
2018-07-22T11:39:13.229Z,27.50
2018-07-22T11:41:54.290Z,27.60
2018-07-22T11:44:35.830Z,27.50
2018-07-22T11:47:17.561Z,27.60
2018-07-22T11:50:00.204Z,27.70
2018-07-22T11:52:41.845Z,27.70
2018-07-22T11:55:24.907Z,27.80
2018-07-22T11:58:05.897Z,27.60
2018-07-22T12:00:48.865Z,27.70
2018-07-22T12:03:30.037Z,27.60
2018-07-22T12:06:10.783Z,27.60
2018-07-22T12:08:52.424Z,27.60
2018-07-22T12:11:34.076Z,27.80
2018-07-22T12:14:15.587Z,27.90
2018-07-22T12:16:57.321Z,28.00
2018-07-22T12:19:39.041Z,27.70
2018-07-22T12:22:19.767Z,27.20
2018-07-22T12:25:01.384Z,27.00
2018-07-22T12:27:42.992Z,27.00
2018-07-22T12:30:25.202Z,26.90
2018-07-22T12:33:06.235Z,26.90
2018-07-22T12:35:47.884Z,26.90
2018-07-22T12:38:29.606Z,26.60
2018-07-22T12:41:10.425Z,26.70
2018-07-22T12:43:52.516Z,26.80
2018-07-22T12:46:33.650Z,26.60
2018-07-22T12:49:15.263Z,26.70
2018-07-22T12:51:56.853Z,26.50
2018-07-22T12:54:37.491Z,26.50
2018-07-22T12:57:19.240Z,26.60
2018-07-22T13:00:00.888Z,26.60
2018-07-22T13:02:41.597Z,26.50
2018-07-22T13:05:23.118Z,26.50
2018-07-22T13:08:03.808Z,26.50
2018-07-22T13:10:45.416Z,26.50
2018-07-22T13:13:26.956Z,26.60
2018-07-22T13:16:08.197Z,26.60
2018-07-22T13:18:49.401Z,26.60
2018-07-22T13:21:30.802Z,26.50
2018-07-22T13:24:11.667Z,26.20
2018-07-22T14:04:24.316Z,27.00
2018-07-22T14:07:06.054Z,27.20
2018-07-22T14:09:47.684Z,27.30
2018-07-22T14:12:28.429Z,27.20
2018-07-22T14:15:10.339Z,27.30
2018-07-22T14:17:51.683Z,27.50
2018-07-22T14:20:32.418Z,27.40
2018-07-22T14:23:14.140Z,27.50
2018-07-22T14:25:55.942Z,27.50
2018-07-22T14:28:36.812Z,27.50
2018-07-22T14:31:18.558Z,27.10
2018-07-22T14:33:59.886Z,27.20
2018-07-22T14:36:41.808Z,27.20
2018-07-22T14:39:23.564Z,27.30
2018-07-22T14:42:06.057Z,27.30
2018-07-22T14:44:47.685Z,27.20
2018-07-22T14:47:29.158Z,27.20
2018-07-22T14:50:09.954Z,27.30
2018-07-22T14:55:33.349Z,27.30
2018-07-22T14:58:14.928Z,27.30
2018-07-22T15:00:56.706Z,27.50
2018-07-22T15:03:40.564Z,27.50
2018-07-22T15:06:21.605Z,27.40
2018-07-22T15:09:02.926Z,27.40
2018-07-22T15:11:43.864Z,27.30
2018-07-22T15:14:24.765Z,27.20
2018-07-22T15:17:06.318Z,27.00
2018-07-22T15:19:57.416Z,27.10
2018-07-22T15:22:39.687Z,27.10
2018-07-22T15:25:21.236Z,27.10
2018-07-22T15:28:02.758Z,27.10
2018-07-22T15:30:44.418Z,27.20
2018-07-22T15:33:28.836Z,27.20
2018-07-22T15:36:10.123Z,27.10
2018-07-22T15:38:54.848Z,27.10
2018-07-22T15:41:36.730Z,27.10
2018-07-22T15:44:17.755Z,27.00
2018-07-22T15:46:58.552Z,26.90
2018-07-22T15:49:40.173Z,26.90
2018-07-22T15:52:20.982Z,26.90
2018-07-22T15:55:02.582Z,26.90
2018-07-22T15:57:44.162Z,26.90
2018-07-22T16:00:25.698Z,26.90
2018-07-22T16:03:07.578Z,26.90
2018-07-22T16:05:48.954Z,27.00
2018-07-22T16:08:30.680Z,26.70
2018-07-22T16:11:12.188Z,26.60
2018-07-22T16:13:53.671Z,26.50
2018-07-22T16:16:35.515Z,26.50
2018-07-22T16:19:17.858Z,26.40
2018-07-22T16:21:58.719Z,26.40
2018-07-22T16:24:40.605Z,26.40
2018-07-22T16:27:26.123Z,26.50
2018-07-22T16:30:07.709Z,26.40
2018-07-22T16:32:49.154Z,26.40
2018-07-22T16:35:31.023Z,26.50
2018-07-22T16:38:12.332Z,26.30
2018-07-22T16:40:53.756Z,26.20
2018-07-22T16:43:35.252Z,26.10
2018-07-22T16:46:17.065Z,26.00
2018-07-22T16:48:58.625Z,26.00
2018-07-22T16:51:40.215Z,26.10
2018-07-22T16:54:21.733Z,26.20
2018-07-22T16:57:04.032Z,26.20
2018-07-22T16:59:46.214Z,26.20
2018-07-22T17:02:28.138Z,26.10
2018-07-22T17:05:09.377Z,26.10
2018-07-22T17:07:51.362Z,25.90
2018-07-22T17:10:33.936Z,25.90
2018-07-22T17:13:15.355Z,25.80
2018-07-22T17:15:56.802Z,25.70
2018-07-22T17:18:38.528Z,25.70
2018-07-22T17:21:19.886Z,25.60
2018-07-22T17:24:00.965Z,25.50
2018-07-22T17:26:42.461Z,25.40
2018-07-22T17:29:24.080Z,25.30
2018-07-22T17:32:05.745Z,25.20
2018-07-22T17:34:46.527Z,25.20
2018-07-22T17:37:28.066Z,25.00
2018-07-22T17:40:09.565Z,25.00
2018-07-22T17:45:39.531Z,24.90
2018-07-22T17:48:24.875Z,24.90
2018-07-22T17:51:05.959Z,25.00
2018-07-22T17:54:07.505Z,25.10
2018-07-22T17:56:49.410Z,25.10
2018-07-22T17:59:30.308Z,25.00
2018-07-22T18:02:11.023Z,25.10
2018-07-22T18:04:52.627Z,25.10
2018-07-22T18:07:34.245Z,25.00
2018-07-22T18:10:15.821Z,25.10
2018-07-22T18:12:56.606Z,25.10
2018-07-22T18:15:38.401Z,25.10
2018-07-22T18:18:20.543Z,25.10
2018-07-22T18:21:01.824Z,25.00
2018-07-22T18:23:43.647Z,24.90
2018-07-22T18:26:25.224Z,24.90
2018-07-22T18:29:07.721Z,25.00
2018-07-22T18:31:49.518Z,25.00
2018-07-22T18:34:48.609Z,25.00
2018-07-22T18:37:40.514Z,24.90
2018-07-22T18:40:22.373Z,24.90
2018-07-22T18:43:03.722Z,24.90
2018-07-22T18:45:45.342Z,24.80
2018-07-22T18:48:27.911Z,24.80
2018-07-22T18:51:28.295Z,24.80
2018-07-22T18:54:09.205Z,24.80
2018-07-22T18:56:50.707Z,24.90
2018-07-22T18:59:33.067Z,24.90
2018-07-22T19:02:14.281Z,25.00
2018-07-22T19:04:55.828Z,24.90
2018-07-22T19:07:38.365Z,24.80
2018-07-22T19:10:20.348Z,24.80
2018-07-22T19:13:01.850Z,24.80
2018-07-22T19:15:42.895Z,24.80
2018-07-22T19:18:24.479Z,24.70
2018-07-22T19:21:05.146Z,24.70
2018-07-22T19:23:47.864Z,24.60
2018-07-22T19:26:29.725Z,24.60
2018-07-22T19:29:11.157Z,24.50
2018-07-22T19:31:52.656Z,24.50
2018-07-22T19:34:34.497Z,24.40
2018-07-22T19:37:15.841Z,24.40
2018-07-22T19:39:58.066Z,24.30
2018-07-22T19:42:39.269Z,24.40
2018-07-22T19:45:21.530Z,24.30
2018-07-22T19:48:02.596Z,24.30
2018-07-22T19:50:44.207Z,24.30
2018-07-22T19:53:25.145Z,24.20
2018-07-22T19:56:06.516Z,24.20
2018-07-22T19:58:47.212Z,24.20
2018-07-22T20:01:27.937Z,24.20
2018-07-22T20:04:10.410Z,24.20
2018-07-22T20:06:51.127Z,24.20
2018-07-22T20:09:32.789Z,24.20
2018-07-22T20:12:14.935Z,24.20
2018-07-22T20:14:56.179Z,24.20
2018-07-22T20:17:37.793Z,24.10
2018-07-22T20:20:18.532Z,24.10
2018-07-22T20:23:08.048Z,24.00
2018-07-22T20:25:48.819Z,24.00
2018-07-22T20:28:30.329Z,24.00
2018-07-22T20:33:53.435Z,24.00
2018-07-22T20:36:35.160Z,23.90
2018-07-22T20:39:37.635Z,23.90
2018-07-22T20:42:26.904Z,23.90
2018-07-22T20:45:08.568Z,23.80
2018-07-22T20:47:50.260Z,23.80
2018-07-22T20:50:31.934Z,23.70
2018-07-22T20:53:12.792Z,23.70
2018-07-22T20:55:54.306Z,23.70
2018-07-22T20:58:35.982Z,23.70
2018-07-22T21:01:18.723Z,23.70
2018-07-22T21:04:00.314Z,23.70
2018-07-22T21:06:43.990Z,23.70
2018-07-22T21:09:25.594Z,23.70
2018-07-22T21:12:06.703Z,23.70
2018-07-22T21:14:47.982Z,23.70
2018-07-22T21:17:28.761Z,23.70
2018-07-22T21:20:09.501Z,23.70
2018-07-22T21:22:50.217Z,23.70
2018-07-22T21:25:31.755Z,23.70
2018-07-22T21:28:12.597Z,23.70
2018-07-22T21:30:53.564Z,23.70
2018-07-22T21:33:35.420Z,23.70
2018-07-22T21:36:16.851Z,23.70
2018-07-22T21:41:46.879Z,23.70
2018-07-22T21:44:30.075Z,23.70
2018-07-22T21:47:32.437Z,23.60
2018-07-22T21:50:21.461Z,23.60
2018-07-22T21:55:55.566Z,23.60
2018-07-22T21:58:39.955Z,23.60
2018-07-22T22:01:23.023Z,23.60
2018-07-22T22:04:04.199Z,23.60
2018-07-22T22:06:53.247Z,23.60
2018-07-22T22:09:46.342Z,23.60
2018-07-22T22:12:31.445Z,23.50
2018-07-22T22:15:43.033Z,23.50
2018-07-22T22:21:09.438Z,23.50
2018-07-22T22:23:50.480Z,23.50
2018-07-22T22:26:32.047Z,23.50
2018-07-22T22:29:13.797Z,23.50
2018-07-22T22:31:55.138Z,23.40
2018-07-22T22:34:37.522Z,23.40
2018-07-22T22:37:19.316Z,23.40
2018-07-22T22:40:01.917Z,23.40
2018-07-22T22:43:06.075Z,23.40
2018-07-22T22:45:48.106Z,23.30
2018-07-22T22:48:29.367Z,23.30
2018-07-22T22:51:10.539Z,23.30
2018-07-22T22:53:52.131Z,23.30
2018-07-22T22:56:36.447Z,23.20
2018-07-22T22:59:21.954Z,23.20
2018-07-22T23:02:03.192Z,23.20
2018-07-22T23:04:44.661Z,23.20
2018-07-22T23:07:26.237Z,23.20
2018-07-22T23:10:07.788Z,23.20
2018-07-22T23:12:49.502Z,23.20
2018-07-22T23:15:31.011Z,23.20
2018-07-22T23:18:16.882Z,23.20
2018-07-22T23:21:01.440Z,23.20
2018-07-22T23:23:44.889Z,23.20
2018-07-22T23:26:26.443Z,23.20
2018-07-22T23:29:17.033Z,23.20
2018-07-22T23:31:57.990Z,23.20
2018-07-22T23:34:39.404Z,23.20
2018-07-22T23:37:20.004Z,23.20
2018-07-22T23:40:01.657Z,23.20
2018-07-22T23:42:43.175Z,23.10
2018-07-22T23:45:24.612Z,23.10
2018-07-22T23:48:06.276Z,23.10
2018-07-22T23:50:47.883Z,23.10
2018-07-22T23:53:29.551Z,23.10
2018-07-22T23:56:11.021Z,23.00
2018-07-22T23:58:52.581Z,23.00
